Time;durP1;ratioP1;P1;durP2;ratioP2;P2;SDS_P1;SDS_P2;PMS_P1;PMS_P2;Temp;Humidity;BMP_temperature;BMP_pressure;BME280_temperature;BME280_humidity;BME280_pressure;Samples;Min_cycle;Max_cycle;Signal;HPM_P1;HPM_P2
2022/06/07 00:01:04;;;;;;;12.85;6.57;;;;;;;17.10;100.00;97476.88;5078512;28;20032;-76
2022/06/07 00:03:29;;;;;;;13.07;6.32;;;;;;;17.11;100.00;97483.16;5072663;28;20019;-76
2022/06/07 00:05:55;;;;;;;14.88;6.05;;;;;;;17.11;100.00;97483.16;5086332;28;20030;-78
2022/06/07 00:08:21;;;;;;;;;;;;;;;17.14;100.00;97483.72;5086594;28;20113;-77
2022/06/07 00:10:47;;;;;;;12.70;6.18;;;;;;;17.11;100.00;97483.16;5097624;28;19912;-75
2022/06/07 00:13:13;;;;;;;14.07;6.40;;;;;;;17.10;100.00;97484.16;5073706;28;20475;-76
2022/06/07 00:15:39;;;;;;;9.77;6.22;;;;;;;16.99;100.00;97468.03;5080035;28;20135;-76
2022/06/07 00:18:06;;;;;;;10.57;7.30;;;;;;;16.96;100.00;97468.28;5089132;28;20024;-75
2022/06/07 00:20:33;;;;;;;15.20;6.60;;;;;;;16.93;100.00;97472.13;5103096;28;20031;-76
2022/06/07 00:22:59;;;;;;;11.02;6.55;;;;;;;16.88;100.00;97470.84;5087477;28;20097;-77
2022/06/07 00:25:25;;;;;;;14.60;7.25;;;;;;;16.88;100.00;97481.66;5082245;28;20031;-76
2022/06/07 00:27:50;;;;;;;16.88;6.82;;;;;;;16.87;100.00;97482.63;5080929;28;20036;-77
2022/06/07 00:30:16;;;;;;;11.75;7.00;;;;;;;16.76;100.00;97473.59;5079632;28;20032;-76
2022/06/07 00:32:42;;;;;;;15.13;6.72;;;;;;;16.70;100.00;97466.03;5078196;28;20045;-76
2022/06/07 00:35:08;;;;;;;9.93;6.68;;;;;;;16.75;100.00;97468.34;5102538;28;20097;-76
2022/06/07 00:37:34;;;;;;;20.55;6.60;;;;;;;16.67;100.00;97458.22;5096874;28;20118;-75
2022/06/07 00:40:00;;;;;;;9.65;7.53;;;;;;;16.62;100.00;97462.31;5084713;28;20070;-76
2022/06/07 00:42:25;;;;;;;15.63;7.00;;;;;;;16.57;100.00;97462.72;5085297;28;20040;-76
2022/06/07 00:44:51;;;;;;;16.30;6.93;;;;;;;16.51;100.00;97465.94;5085768;28;20035;-75
2022/06/07 00:47:21;;;;;;;14.25;7.20;;;;;;;16.49;100.00;97465.19;5085754;28;20140;-76
2022/06/07 00:49:51;;;;;;;20.05;6.85;;;;;;;16.48;100.00;97468.03;5079062;28;20087;-77
2022/06/07 00:52:19;;;;;;;13.10;6.88;;;;;;;16.46;100.00;97464.59;5092606;28;20032;-77
2022/06/07 00:54:44;;;;;;;17.52;7.03;;;;;;;16.50;100.00;97472.31;5084368;28;20376;-77
2022/06/07 00:57:10;;;;;;;15.35;7.13;;;;;;;16.45;100.00;97473.72;5088056;28;20024;-76
2022/06/07 00:59:37;;;;;;;15.52;6.57;;;;;;;16.30;100.00;97465.09;5084277;28;20527;-75
2022/06/07 01:02:03;;;;;;;20.60;6.68;;;;;;;16.30;100.00;97465.09;5079030;28;20123;-76
2022/06/07 01:04:29;;;;;;;13.30;6.13;;;;;;;16.25;100.00;97484.38;5081844;28;20028;-76
2022/06/07 01:12:24;;;;;;;8.88;5.93;;;;;;;16.09;100.00;97491.19;5102210;28;20026;-76
2022/06/07 01:14:50;;;;;;;17.40;6.40;;;;;;;16.06;100.00;97483.38;5087181;28;20034;-76
2022/06/07 01:17:16;;;;;;;16.67;9.18;;;;;;;16.10;100.00;97476.72;5084294;28;20032;-76
2022/06/07 01:19:41;;;;;;;20.70;10.55;;;;;;;16.10;100.00;97485.69;5085316;28;20096;-76
2022/06/07 01:22:08;;;;;;;31.88;11.77;;;;;;;16.01;100.00;97493.69;5083166;28;20031;-77
2022/06/07 01:24:33;;;;;;;24.98;11.43;;;;;;;16.00;100.00;97486.59;5077101;28;20050;-77
2022/06/07 01:26:59;;;;;;;54.17;11.05;;;;;;;15.97;100.00;97479.63;5088342;28;20032;-76
2022/06/07 01:29:24;;;;;;;51.22;11.00;;;;;;;16.00;100.00;97479.34;5101499;28;20031;-77
2022/06/07 01:31:50;;;;;;;34.97;10.50;;;;;;;16.17;100.00;97476.09;5085196;28;20454;-78
2022/06/07 01:34:16;;;;;;;45.73;11.40;;;;;;;16.31;100.00;97471.31;5100423;28;20407;-75
2022/06/07 01:36:41;;;;;;;43.67;10.85;;;;;;;16.52;100.00;97464.09;5096961;28;20468;-76
2022/06/07 01:41:54;;;;;;;33.93;10.63;;;;;;;16.71;100.00;97453.41;5101064;28;20794;-76
2022/06/07 01:44:21;;;;;;;57.28;11.43;;;;;;;16.81;100.00;97457.00;5075629;28;20458;-75
2022/06/07 01:46:47;;;;;;;13.57;9.38;;;;;;;16.86;100.00;97453.91;5097111;28;20445;-76
2022/06/07 01:49:12;;;;;;;34.22;10.48;;;;;;;16.82;100.00;97447.94;5099291;28;20418;-75
2022/06/07 01:51:38;;;;;;;16.87;10.53;;;;;;;16.80;100.00;97458.00;5078553;28;20443;-76
2022/06/07 01:54:04;;;;;;;18.45;10.90;;;;;;;16.69;100.00;97453.56;5088197;28;20407;-76
2022/06/07 01:56:29;;;;;;;17.20;10.40;;;;;;;16.74;100.00;97456.69;5081515;28;20392;-77
2022/06/07 01:58:57;;;;;;;20.53;10.13;;;;;;;16.78;100.00;97449.19;5090030;28;20389;-76
2022/06/07 02:01:23;;;;;;;23.87;9.93;;;;;;;16.78;100.00;97447.34;5080127;28;20501;-76
2022/06/07 02:03:49;;;;;;;12.50;8.10;;;;;;;16.74;100.00;97445.88;5079745;28;20031;-75
2022/06/07 02:06:14;;;;;;;13.48;8.05;;;;;;;16.68;100.00;97448.28;5082214;28;20038;-77
2022/06/07 02:08:41;;;;;;;20.17;8.50;;;;;;;16.63;100.00;97443.28;5092981;28;20032;-75
2022/06/07 02:11:12;;;;;;;14.85;9.05;;;;;;;16.58;100.00;97459.03;5076545;28;20027;-76
2022/06/07 02:13:38;;;;;;;15.10;9.10;;;;;;;16.56;100.00;97468.25;5080924;28;20031;-77
2022/06/07 02:16:05;;;;;;;18.42;9.45;;;;;;;16.51;100.00;97460.53;5082270;28;20107;-77
2022/06/07 02:18:31;;;;;;;13.75;9.57;;;;;;;16.47;100.00;97467.19;5082182;28;20027;-75
2022/06/07 02:20:57;;;;;;;22.20;9.93;;;;;;;16.43;100.00;97468.44;5080072;28;20027;-76
2022/06/07 02:23:27;;;;;;;14.65;10.05;;;;;;;16.34;100.00;97471.06;5074462;28;20157;-78
2022/06/07 02:25:57;;;;;;;14.55;10.02;;;;;;;16.39;100.00;97480.50;5077740;28;20039;-75
2022/06/07 02:28:25;;;;;;;17.80;11.00;;;;;;;16.48;100.00;97470.75;5088614;28;20028;-76
2022/06/07 02:30:52;;;;;;;14.48;9.65;;;;;;;16.46;100.00;97461.91;5070733;28;20088;-76
2022/06/07 02:33:18;;;;;;;14.48;10.20;;;;;;;16.41;100.00;97458.75;5085335;28;20032;-77
2022/06/07 02:35:44;;;;;;;16.45;9.57;;;;;;;16.49;100.00;97467.91;5090392;28;20051;-77
2022/06/07 02:38:10;;;;;;;20.17;9.95;;;;;;;16.40;100.00;97460.59;5102519;28;20020;-77
2022/06/07 02:40:36;;;;;;;18.55;10.70;;;;;;;16.53;100.00;97474.75;5096162;28;20035;-77
2022/06/07 02:43:03;;;;;;;19.25;10.88;;;;;;;16.54;100.00;97483.72;5111896;28;20522;-77
2022/06/07 02:45:28;;;;;;;20.83;10.13;;;;;;;16.49;100.00;97476.00;5109453;28;20035;-78
2022/06/07 02:47:54;;;;;;;18.65;11.23;;;;;;;16.52;100.00;97473.03;5080955;28;20096;-76
2022/06/07 02:50:19;;;;;;;14.80;9.35;;;;;;;16.52;100.00;97472.19;5094874;28;20383;-76
2022/06/07 02:52:45;;;;;;;18.65;10.07;;;;;;;16.59;100.00;97478.78;5092577;28;20027;-76
2022/06/07 02:55:11;;;;;;;21.17;11.18;;;;;;;16.61;100.00;97483.06;5084065;28;20065;-76
2022/06/07 02:57:36;;;;;;;17.70;10.82;;;;;;;16.68;100.00;97478.84;5086201;28;20028;-76
2022/06/07 03:00:05;;;;;;;23.35;9.85;;;;;;;16.64;100.00;97474.69;5084949;28;20113;-77
2022/06/07 03:02:31;;;;;;;21.33;11.18;;;;;;;16.69;100.00;97485.97;5090595;28;20042;-76
2022/06/07 03:04:57;;;;;;;22.90;10.63;;;;;;;16.76;100.00;97491.69;5097256;28;20023;-76
2022/06/07 03:07:22;;;;;;;20.48;10.35;;;;;;;16.80;100.00;97483.16;5094428;28;20032;-75
2022/06/07 03:09:48;;;;;;;19.98;9.90;;;;;;;16.91;100.00;97489.47;5077680;28;20453;-76
2022/06/07 03:12:13;;;;;;;18.33;9.00;;;;;;;16.98;100.00;97496.06;5089450;28;20028;-78
2022/06/07 03:14:39;;;;;;;17.55;9.98;;;;;;;16.82;100.00;97468.69;5083661;28;20101;-76
2022/06/07 03:17:06;;;;;;;20.85;9.40;;;;;;;16.83;100.00;97484.75;5103405;28;20027;-76
2022/06/07 03:19:32;;;;;;;19.95;9.63;;;;;;;16.82;100.00;97488.44;5086855;28;20059;-77
2022/06/07 03:21:58;;;;;;;16.85;10.25;;;;;;;16.75;100.00;97479.16;5094923;28;20081;-76
2022/06/07 03:24:25;;;;;;;16.65;9.10;;;;;;;16.89;100.00;97488.78;5115209;28;20024;-78
2022/06/07 03:26:51;;;;;;;17.63;9.73;;;;;;;16.89;100.00;97495.00;5091640;28;20036;-76
2022/06/07 03:29:16;;;;;;;42.03;9.68;;;;;;;16.92;100.00;97489.31;5099496;28;20031;-76
2022/06/07 03:31:42;;;;;;;16.75;8.75;;;;;;;17.01;100.00;97487.69;5105969;28;20030;-76
2022/06/07 03:34:07;;;;;;;17.88;8.75;;;;;;;17.00;100.00;97489.53;5088997;28;20052;-75
2022/06/07 03:36:33;;;;;;;18.00;9.70;;;;;;;17.05;100.00;97483.69;5084968;28;20108;-77
2022/06/07 03:39:01;;;;;;;15.50;8.88;;;;;;;17.08;100.00;97491.53;5075872;28;20415;-77
2022/06/07 03:41:28;;;;;;;16.30;9.30;;;;;;;17.21;100.00;97489.44;5075851;28;20046;-76
2022/06/07 03:43:54;;;;;;;18.55;9.30;;;;;;;17.26;100.00;97495.28;5101412;28;20028;-76
2022/06/07 03:46:26;;;;;;;24.38;9.43;;;;;;;17.30;100.00;97492.19;5100217;28;20031;-75
2022/06/07 03:48:53;;;;;;;13.40;8.18;;;;;;;17.38;100.00;97493.34;5103319;28;20122;-77
2022/06/07 03:51:20;;;;;;;14.15;8.38;;;;;;;17.35;100.00;97487.22;5084287;28;20027;-76
2022/06/07 03:53:46;;;;;;;17.70;8.70;;;;;;;17.35;100.00;97486.34;5083268;28;20027;-76
2022/06/07 03:56:13;;;;;;;21.35;8.63;;;;;;;17.43;100.00;97491.94;5083681;28;20436;-76
2022/06/07 03:58:39;;;;;;;12.35;9.02;;;;;;;17.51;100.00;97491.22;5085383;28;20080;-76
2022/06/07 04:01:07;;;;;;;18.38;8.40;;;;;;;17.53;100.00;97487.41;5089077;28;20115;-77
2022/06/07 04:03:33;;;;;;;24.38;8.48;;;;;;;17.64;100.00;97487.31;5083815;28;20367;-76
2022/06/07 04:06:00;;;;;;;11.45;8.43;;;;;;;17.77;100.00;97482.50;5080741;28;20039;-77
2022/06/07 04:08:25;;;;;;;17.13;8.65;;;;;;;18.02;100.00;97485.63;5094877;28;20027;-77
2022/06/07 04:10:54;;;;;;;16.40;7.65;;;;;;;18.25;100.00;97482.47;5113022;28;20498;-75
2022/06/07 04:13:22;;;;;;;19.73;10.23;;;;;;;18.40;100.00;97488.31;5077943;28;20035;-76
2022/06/07 04:15:48;;;;;;;19.13;9.90;;;;;;;18.31;100.00;97492.72;5079993;28;20047;-77
2022/06/07 04:18:14;;;;;;;15.57;8.68;;;;;;;18.35;100.00;97477.91;5083563;28;20036;-76
2022/06/07 04:20:40;;;;;;;14.45;8.48;;;;;;;18.50;100.00;97491.03;5106022;28;20018;-77
2022/06/07 04:23:06;;;;;;;22.25;8.73;;;;;;;18.56;100.00;97493.16;5094142;28;20028;-76
2022/06/07 04:25:36;;;;;;;23.75;9.93;;;;;;;18.73;100.00;97506.84;5094878;28;20051;-76
2022/06/07 04:28:02;;;;;;;15.65;8.93;;;;;;;18.86;100.00;97504.63;5079398;28;20034;-78
2022/06/07 04:30:28;;;;;;;18.95;11.07;;;;;;;18.87;100.00;97500.94;5089575;28;20032;-78
2022/06/07 04:32:54;;;;;;;18.27;9.80;;;;;;;18.83;100.00;97499.50;5090089;28;20561;-77
2022/06/07 04:35:20;;;;;;;17.35;9.32;;;;;;;18.79;100.00;97498.13;5078390;28;20039;-78
2022/06/07 04:37:46;;;;;;;13.82;9.80;;;;;;;18.76;100.00;97498.41;5087547;28;20035;-77
2022/06/07 04:40:12;;;;;;;17.17;8.05;;;;;;;18.89;100.00;97474.50;5083323;28;20554;-76
2022/06/07 04:42:38;;;;;;;13.95;7.65;;;;;;;19.55;100.00;97495.22;5087486;28;20034;-77
2022/06/07 04:45:06;;;;;;;22.73;8.10;;;;;;;19.81;100.00;97502.47;5110942;28;20425;-76
2022/06/07 04:47:33;;;;;;;15.20;8.60;;;;;;;19.77;100.00;97501.09;5077239;28;20028;-76
2022/06/07 04:49:58;;;;;;;15.27;7.75;;;;;;;20.34;100.00;97501.66;5081478;28;20040;-76
2022/06/07 04:52:24;;;;;;;10.48;6.35;;;;;;;20.73;100.00;97504.88;5093318;28;20020;-76
2022/06/07 04:54:49;;;;;;;9.68;6.30;;;;;;;21.26;100.00;97497.41;5076458;28;20111;-75
2022/06/07 04:57:15;;;;;;;15.50;7.30;;;;;;;22.56;97.23;97509.50;5091652;28;20499;-78
2022/06/07 04:59:40;;;;;;;17.55;6.38;;;;;;;23.30;86.20;97508.41;5086063;28;20451;-79
2022/06/07 05:02:06;;;;;;;16.60;6.10;;;;;;;23.63;82.62;97499.09;5091961;28;20024;-80
2022/06/07 05:04:31;;;;;;;11.93;5.72;;;;;;;23.80;80.61;97514.41;5083281;28;20028;-78
2022/06/07 05:06:57;;;;;;;11.48;6.60;;;;;;;24.00;78.66;97517.50;5086624;28;20067;-79
2022/06/07 05:09:24;;;;;;;11.85;5.97;;;;;;;24.61;75.94;97513.91;5092075;28;20023;-79
2022/06/07 05:11:51;;;;;;;19.02;6.80;;;;;;;26.02;70.08;97513.78;5093857;28;20031;-79
2022/06/07 05:14:17;;;;;;;25.38;8.50;;;;;;;25.34;72.08;97525.03;5082201;28;20111;-80
2022/06/07 05:16:43;;;;;;;23.80;7.50;;;;;;;24.68;75.01;97529.38;5086511;28;20181;-76
2022/06/07 05:19:10;;;;;;;14.25;7.07;;;;;;;24.73;73.38;97529.66;5101657;28;20043;-75
2022/06/07 05:21:36;;;;;;;18.42;7.72;;;;;;;23.72;80.39;97536.25;5100949;28;20028;-76
2022/06/07 05:24:02;;;;;;;17.83;6.68;;;;;;;23.65;79.80;97529.84;5093083;28;20046;-76
2022/06/07 05:26:42;;;;;;;14.68;7.07;;;;;;;22.96;85.35;97535.94;5091966;28;20036;-75
2022/06/07 05:29:45;;;;;;;19.70;7.13;;;;;;;22.80;87.75;97523.16;5074396;28;20032;-75
2022/06/07 05:32:10;;;;;;;;;;;;;;;23.26;84.66;97529.72;5102317;28;20039;-76
2022/06/07 05:34:36;;;;;;;10.60;6.88;;;;;;;23.05;85.14;97527.56;5090569;28;19915;-76
2022/06/07 05:37:01;;;;;;;15.20;6.70;;;;;;;23.62;83.87;97520.13;5105177;28;20406;-76
2022/06/07 05:39:28;;;;;;;16.27;6.68;;;;;;;23.77;80.35;97522.94;5108646;28;20031;-76
2022/06/07 05:44:39;;;;;;;8.40;5.65;;;;;;;24.77;77.24;97531.00;5090980;28;20576;-75
2022/06/07 05:47:06;;;;;;;12.93;6.68;;;;;;;25.83;71.00;97530.81;5103815;28;20032;-75
2022/06/07 05:49:32;;;;;;;11.13;6.15;;;;;;;24.47;75.73;97533.81;5083057;28;20427;-76
2022/06/07 05:51:57;;;;;;;12.40;7.40;;;;;;;23.83;78.15;97524.97;5072443;28;20036;-76
2022/06/07 05:54:23;;;;;;;13.75;7.35;;;;;;;23.33;83.16;97524.44;5089337;28;20038;-76
2022/06/07 05:56:49;;;;;;;19.33;10.60;;;;;;;23.77;82.24;97533.03;5092724;28;20026;-76
2022/06/07 05:59:15;;;;;;;14.80;8.73;;;;;;;23.95;81.27;97530.88;5109769;28;20118;-76
2022/06/07 06:01:41;;;;;;;29.25;10.35;;;;;;;23.79;83.08;97526.34;5092588;28;20015;-76
2022/06/07 06:04:07;;;;;;;21.55;9.52;;;;;;;23.98;80.42;97525.06;5095971;28;20100;-77
2022/06/07 06:06:34;;;;;;;14.65;8.50;;;;;;;24.20;80.03;97535.22;5107945;28;20492;-75
2022/06/07 06:11:44;;;;;;;16.08;8.60;;;;;;;23.77;81.25;97530.28;5099224;28;20035;-75
2022/06/07 06:14:10;;;;;;;17.17;9.10;;;;;;;24.36;79.06;97523.31;5090660;28;20028;-76
2022/06/07 06:16:37;;;;;;;16.30;8.93;;;;;;;25.30;74.32;97524.56;5112382;28;20066;-75
2022/06/07 06:19:03;;;;;;;19.48;7.93;;;;;;;26.75;67.37;97526.41;5096524;28;20100;-75
2022/06/07 06:21:34;;;;;;;15.40;7.55;;;;;;;26.05;66.78;97520.75;5107581;27;20427;-75
2022/06/07 06:24:00;;;;;;;10.33;7.57;;;;;;;25.63;68.62;97524.19;5109606;28;20024;-76
2022/06/07 06:26:26;;;;;;;10.70;7.80;;;;;;;25.98;68.18;97526.16;5075807;28;20034;-75
2022/06/07 06:28:53;;;;;;;15.98;7.28;;;;;;;26.36;65.33;97527.69;5109921;28;20086;-76
2022/06/07 06:31:19;;;;;;;19.30;7.55;;;;;;;26.48;65.21;97521.69;5109461;28;20024;-76
2022/06/07 06:33:48;;;;;;;13.50;8.02;;;;;;;26.69;62.67;97516.22;5093080;28;20396;-76
2022/06/07 06:36:15;;;;;;;8.77;6.90;;;;;;;27.97;59.52;97517.56;5096497;28;20103;-75
2022/06/07 06:38:43;;;;;;;19.20;6.05;;;;;;;29.98;53.08;97502.50;5093841;28;20039;-76
2022/06/07 06:41:23;;;;;;;17.48;7.93;;;;;;;28.16;56.61;97516.00;5077632;28;20076;-75
2022/06/07 06:43:50;;;;;;;12.02;7.55;;;;;;;27.81;58.75;97513.28;5075761;28;20038;-75
2022/06/07 06:46:19;;;;;;;17.85;8.63;;;;;;;28.92;55.70;97510.03;5091023;28;20136;-76
2022/06/07 06:48:45;;;;;;;11.65;5.88;;;;;;;27.97;56.81;97510.19;5084945;28;20039;-76
2022/06/07 06:51:13;;;;;;;12.48;5.97;;;;;;;28.01;57.39;97521.63;5075725;28;20050;-76
2022/06/07 06:53:41;;;;;;;11.25;5.53;;;;;;;27.34;57.69;97511.28;5094057;28;20046;-75
2022/06/07 06:56:07;;;;;;;11.75;6.05;;;;;;;26.99;60.33;97520.53;5112999;28;20103;-75
2022/06/07 06:58:33;;;;;;;10.55;5.22;;;;;;;28.33;57.36;97509.91;5086845;28;20024;-76
2022/06/07 07:01:11;;;;;;;8.25;4.65;;;;;;;28.04;58.22;97512.97;5093518;28;20478;-76
2022/06/07 07:03:38;;;;;;;28.48;6.60;;;;;;;28.02;59.22;97518.66;5100451;28;20027;-77
2022/06/07 07:06:05;;;;;;;14.40;5.78;;;;;;;28.37;58.25;97513.94;5089342;28;20063;-76
2022/06/07 07:08:32;;;;;;;8.30;5.18;;;;;;;29.30;55.29;97502.00;5092065;28;20023;-76
2022/06/07 07:11:15;;;;;;;11.25;4.60;;;;;;;28.76;55.11;97513.22;5092790;28;20023;-76
2022/06/07 07:13:41;;;;;;;6.75;4.80;;;;;;;28.24;54.66;97502.91;5106821;28;20506;-76
2022/06/07 07:16:13;;;;;;;6.50;4.20;;;;;;;29.71;51.86;97489.84;5105542;28;20120;-75
2022/06/07 07:18:39;;;;;;;14.93;4.18;;;;;;;32.03;46.17;97486.91;5112224;28;20020;-77
2022/06/07 07:21:07;;;;;;;14.82;5.55;;;;;;;32.64;44.81;97484.00;5086927;28;20023;-76
2022/06/07 07:23:33;;;;;;;6.53;4.10;;;;;;;32.63;43.56;97477.59;5098590;28;20111;-77
2022/06/07 07:26:06;;;;;;;16.23;3.67;;;;;;;31.75;45.48;97483.84;5073812;28;20031;-76
2022/06/07 07:28:32;;;;;;;11.45;4.95;;;;;;;31.48;45.87;97475.75;5108653;28;20035;-75
2022/06/07 07:31:03;;;;;;;15.02;4.57;;;;;;;30.59;47.92;97491.81;5080658;28;20016;-75
2022/06/07 07:33:28;;;;;;;10.68;3.55;;;;;;;32.60;43.49;97482.75;5107518;28;20059;-76
2022/06/07 07:35:55;;;;;;;6.47;3.55;;;;;;;33.12;41.80;97470.00;5112043;28;20135;-76
2022/06/07 07:38:20;;;;;;;5.40;3.08;;;;;;;34.54;39.57;97465.72;5088800;28;20030;-76
2022/06/07 07:40:46;;;;;;;8.52;3.60;;;;;;;35.79;37.60;97455.06;5091687;28;20032;-76
2022/06/07 07:43:12;;;;;;;8.65;3.45;;;;;;;37.16;35.00;97449.16;5105706;28;20028;-76
2022/06/07 07:45:38;;;;;;;7.93;3.72;;;;;;;37.23;34.87;97439.44;5088666;28;20088;-77
2022/06/07 07:48:04;;;;;;;10.10;3.35;;;;;;;37.43;34.35;97442.41;5094740;28;20566;-76
2022/06/07 07:50:30;;;;;;;7.05;3.55;;;;;;;36.82;34.81;97449.41;5087510;28;20039;-76
2022/06/07 07:52:59;;;;;;;6.60;3.08;;;;;;;36.85;34.67;97448.88;5094654;28;20138;-76
2022/06/07 07:55:25;;;;;;;4.85;3.30;;;;;;;36.29;34.60;97438.19;5111721;28;20425;-76
2022/06/07 07:57:51;;;;;;;9.85;5.18;;;;;;;37.04;34.26;97437.34;5105066;28;20479;-76
2022/06/07 08:00:16;;;;;;;8.80;3.72;;;;;;;37.57;34.43;97428.81;5086858;28;20055;-76
2022/06/07 08:02:42;;;;;;;6.53;3.38;;;;;;;37.05;33.80;97431.50;5094920;28;20467;-76
2022/06/07 08:05:09;;;;;;;8.07;3.22;;;;;;;37.73;31.47;97422.22;5094582;28;20089;-76
2022/06/07 08:07:34;;;;;;;4.00;2.90;;;;;;;37.51;31.60;97415.09;5088723;28;20020;-76
2022/06/07 08:10:06;;;;;;;4.18;2.70;;;;;;;37.88;30.71;97413.91;5091659;28;20034;-76
2022/06/07 08:12:31;;;;;;;;;;;;;;;38.91;28.92;97405.63;5089786;28;20403;-76
2022/06/07 08:15:00;;;;;;;16.35;3.45;;;;;;;38.91;30.23;97406.47;5091101;28;19912;-77
2022/06/07 08:17:27;;;;;;;6.88;2.75;;;;;;;37.75;31.98;97408.81;5098613;28;20034;-76
2022/06/07 08:19:53;;;;;;;4.10;2.83;;;;;;;35.93;33.27;97405.41;5107597;28;20028;-76
2022/06/07 08:22:22;;;;;;;6.65;2.92;;;;;;;36.85;33.32;97407.03;5082383;28;20526;-76
2022/06/07 08:24:48;;;;;;;14.38;3.30;;;;;;;37.38;33.19;97402.41;5100818;28;20388;-76
2022/06/07 08:27:14;;;;;;;13.32;3.65;;;;;;;37.52;31.63;97386.91;5082978;28;20024;-76
2022/06/07 08:29:40;;;;;;;10.48;3.17;;;;;;;37.69;32.33;97398.72;5081272;28;20020;-76
2022/06/07 08:32:07;;;;;;;10.70;3.47;;;;;;;37.08;33.07;97396.63;5073647;28;20031;-76
2022/06/07 08:37:37;;;;;;;10.77;3.25;;;;;;;37.81;30.55;97378.97;5111236;28;20340;-76
2022/06/07 08:40:33;;;;;;;4.85;2.67;;;;;;;37.41;30.56;97377.59;5094834;28;20016;-76
2022/06/07 08:43:00;;;;;;;8.98;2.70;;;;;;;37.24;29.87;97378.88;5100222;28;20035;-76
2022/06/07 08:45:38;;;;;;;7.60;2.65;;;;;;;36.47;30.87;97372.88;5093294;28;20039;-77
2022/06/07 08:48:13;;;;;;;4.70;2.63;;;;;;;37.18;31.38;97371.59;5076630;28;20441;-78
2022/06/07 08:50:48;;;;;;;5.13;2.30;;;;;;;37.73;30.10;97359.94;5071865;28;20024;-75
2022/06/07 08:53:31;;;;;;;2.80;2.17;;;;;;;36.85;31.01;97359.63;5078014;28;20155;-76
2022/06/07 08:55:58;;;;;;;15.45;3.10;;;;;;;38.14;28.80;97355.38;5089108;28;20088;-75
2022/06/07 08:58:31;;;;;;;10.60;3.15;;;;;;;39.27;26.70;97340.09;5078023;28;20020;-76
2022/06/07 09:01:24;;;;;;;3.83;2.50;;;;;;;38.74;26.98;97351.84;5109325;28;20028;-76
2022/06/07 09:04:29;;;;;;;4.38;2.30;;;;;;;36.79;28.78;97349.50;5067522;28;20043;-76
2022/06/07 09:07:19;;;;;;;6.00;1.88;;;;;;;37.38;25.23;97321.47;5080223;28;20040;-76
2022/06/07 09:12:34;;;;;;;7.60;2.33;;;;;;;39.27;23.53;97319.66;5098934;28;20035;-76
2022/06/07 09:15:11;;;;;;;4.68;2.30;;;;;;;39.20;24.01;97305.06;5094712;28;20537;-76
2022/06/07 09:17:51;;;;;;;4.85;1.90;;;;;;;39.26;24.23;97318.81;5090015;28;20024;-76
2022/06/07 09:20:22;;;;;;;2.97;1.80;;;;;;;38.36;24.28;97314.06;5083951;28;20387;-76
2022/06/07 09:22:56;;;;;;;3.03;2.10;;;;;;;37.23;25.48;97305.47;5090577;28;20035;-76
2022/06/07 09:25:25;;;;;;;5.78;2.30;;;;;;;37.66;24.98;97301.53;5089966;28;20031;-77
2022/06/07 09:27:50;;;;;;;3.60;1.90;;;;;;;37.11;26.48;97309.56;5105976;28;20034;-76
2022/06/07 09:30:16;;;;;;;2.15;1.95;;;;;;;38.38;24.53;97307.09;5090584;28;20027;-77
2022/06/07 09:32:43;;;;;;;1.70;1.60;;;;;;;38.88;23.64;97295.09;5091690;28;20110;-76
2022/06/07 09:35:20;;;;;;;4.43;1.90;;;;;;;39.47;23.73;97297.22;5072688;28;20112;-76
2022/06/07 09:37:56;;;;;;;3.95;2.33;;;;;;;38.28;24.75;97289.41;5109825;28;20074;-77
2022/06/07 09:40:37;;;;;;;10.07;2.00;;;;;;;38.67;24.32;97286.97;5076688;28;20031;-76
2022/06/07 09:43:15;;;;;;;8.65;2.35;;;;;;;39.43;24.19;97285.75;5103646;28;20092;-76
2022/06/07 09:45:44;;;;;;;5.05;2.10;;;;;;;38.68;24.53;97286.66;5073544;28;20043;-75
2022/06/07 09:48:37;;;;;;;5.72;2.03;;;;;;;39.31;24.09;97281.56;5104283;28;20092;-75
2022/06/07 09:51:19;;;;;;;7.70;1.95;;;;;;;37.78;25.52;97285.34;5089914;28;20031;-76
2022/06/07 09:53:47;;;;;;;3.15;1.95;;;;;;;38.50;25.13;97276.03;5109793;28;20080;-76
2022/06/07 09:56:19;;;;;;;2.63;2.30;;;;;;;37.61;26.05;97268.00;5086591;28;20030;-77
2022/06/07 09:59:23;;;;;;;5.55;1.85;;;;;;;38.29;24.91;97277.13;5090937;28;20399;-77
2022/06/07 10:02:27;;;;;;;3.70;2.05;;;;;;;37.60;25.14;97259.88;5090454;28;20568;-77
2022/06/07 10:05:05;;;;;;;9.48;1.85;;;;;;;35.07;29.38;97273.38;5101101;28;20024;-75
2022/06/07 10:07:50;;;;;;;5.25;2.50;;;;;;;36.10;28.22;97270.53;5076093;28;20491;-76
2022/06/07 10:10:51;;;;;;;10.25;4.72;;;;;;;38.24;25.69;97277.94;5103493;28;20161;-77
2022/06/07 10:13:40;;;;;;;2.28;2.08;;;;;;;38.60;24.45;97262.06;5070228;28;20063;-75
2022/06/07 10:16:47;;;;;;;3.50;2.15;;;;;;;39.24;24.71;97270.69;5092736;28;20030;-76
2022/06/07 10:19:41;;;;;;;3.65;2.15;;;;;;;39.27;23.42;97252.47;5095275;28;20113;-76
2022/06/07 10:22:18;;;;;;;3.85;2.53;;;;;;;38.99;23.61;97251.97;5101447;28;20016;-76
2022/06/07 10:25:12;;;;;;;2.90;1.85;;;;;;;37.36;24.73;97235.19;5092541;28;20028;-76
2022/06/07 10:27:50;;;;;;;2.00;1.90;;;;;;;38.30;24.61;97242.47;5101808;28;20028;-76
2022/06/07 10:30:27;;;;;;;6.97;2.30;;;;;;;39.07;23.66;97241.31;5103550;28;20031;-77
2022/06/07 10:33:07;;;;;;;9.30;2.42;;;;;;;39.31;22.91;97234.81;5100915;28;20019;-75
2022/06/07 10:35:48;;;;;;;12.02;4.18;;;;;;;39.87;23.17;97248.59;5094112;28;20040;-76
2022/06/07 10:38:39;;;;;;;6.68;2.67;;;;;;;40.66;22.29;97225.88;5084006;28;20028;-77
2022/06/07 10:41:28;;;;;;;5.13;2.45;;;;;;;40.66;22.30;97234.28;5101692;28;20542;-77
2022/06/07 10:43:57;;;;;;;5.47;1.90;;;;;;;41.57;20.92;97216.44;5106903;28;20024;-77
2022/06/07 10:46:23;;;;;;;2.75;2.25;;;;;;;40.39;22.32;97211.50;5096612;28;20042;-77
2022/06/07 10:49:30;;;;;;;6.75;1.98;;;;;;;40.72;22.46;97213.44;5109292;28;20027;-77
2022/06/07 10:52:22;;;;;;;3.42;2.47;;;;;;;39.87;23.58;97212.97;5101711;28;20162;-77
2022/06/07 10:55:13;;;;;;;4.03;2.30;;;;;;;37.64;24.65;97208.81;5094417;28;20077;-76
2022/06/07 10:57:52;;;;;;;4.53;2.67;;;;;;;34.98;27.62;97205.41;5084292;28;20103;-75
2022/06/07 11:00:36;;;;;;;4.85;2.28;;;;;;;36.35;26.54;97208.59;5102911;27;20096;-76
2022/06/07 11:03:24;;;;;;;4.75;2.25;;;;;;;36.80;25.70;97208.94;5093070;28;20551;-75
2022/06/07 11:11:35;;;;;;;9.73;2.28;;;;;;;38.27;25.64;97201.91;5096901;28;20128;-75
2022/06/07 11:14:30;;;;;;;3.95;2.30;;;;;;;38.42;24.08;97190.75;5087560;28;20459;-76
2022/06/07 11:17:03;;;;;;;13.18;2.60;;;;;;;38.53;24.68;97190.75;5068397;28;20040;-76
2022/06/07 11:19:30;;;;;;;2.28;2.08;;;;;;;38.99;23.91;97173.59;5100755;28;20028;-76
2022/06/07 11:22:00;;;;;;;2.85;2.65;;;;;;;38.94;24.66;97184.81;5075104;28;20538;-75
2022/06/07 11:24:34;;;;;;;3.28;2.40;;;;;;;39.15;23.81;97177.16;5083618;28;20020;-76
2022/06/07 11:27:02;;;;;;;8.10;2.45;;;;;;;39.62;24.24;97185.09;5093679;28;20427;-76
2022/06/07 11:29:30;;;;;;;2.40;2.20;;;;;;;39.79;22.76;97171.56;5095652;28;20039;-76
2022/06/07 11:31:56;;;;;;;2.85;2.30;;;;;;;39.23;23.53;97171.00;5085609;28;20027;-76
2022/06/07 11:34:40;;;;;;;7.93;2.38;;;;;;;40.17;22.89;97160.66;5100580;28;20048;-76
2022/06/07 11:37:08;;;;;;;6.57;2.40;;;;;;;39.47;24.05;97171.19;5091865;28;20506;-76
2022/06/07 11:39:40;;;;;;;3.53;2.42;;;;;;;37.71;25.51;97163.84;5100612;28;20028;-75
2022/06/07 11:42:16;;;;;;;9.82;2.90;;;;;;;35.96;27.07;97170.91;5103697;28;20476;-76
2022/06/07 11:44:41;;;;;;;8.02;2.80;;;;;;;36.32;27.20;97165.38;5105034;28;20085;-76
2022/06/07 11:47:07;;;;;;;8.65;3.00;;;;;;;38.08;25.30;97166.44;5103675;28;20032;-76
2022/06/07 11:49:54;;;;;;;5.00;2.75;;;;;;;37.47;26.13;97157.09;5099420;28;20101;-76
2022/06/07 11:52:33;;;;;;;5.43;2.55;;;;;;;38.03;24.39;97158.03;5085293;28;20024;-76
2022/06/07 11:55:14;;;;;;;15.48;2.58;;;;;;;38.06;24.88;97158.31;5100696;28;20036;-76
2022/06/07 11:58:00;;;;;;;8.20;2.78;;;;;;;38.61;23.92;97160.22;5086555;28;20015;-77
2022/06/07 12:00:28;;;;;;;4.43;2.97;;;;;;;38.57;24.21;97161.09;5107440;28;20403;-75
2022/06/07 12:02:56;;;;;;;3.60;2.58;;;;;;;38.58;23.99;97152.41;5099701;28;20040;-78